Time;durP1;ratioP1;P1;durP2;ratioP2;P2;SDS_P1;SDS_P2;PMS_P1;PMS_P2;Temp;Humidity;BMP_temperature;BMP_pressure;BME280_temperature;BME280_humidity;BME280_pressure;Samples;Min_cycle;Max_cycle;Signal;HPM_P1;HPM_P2
2023/12/25 00:00:24;;;;;;;4.63;1.45;;;;;;;10.83;100.00;100199.22;1017137;28;20404;-58
2023/12/25 00:02:32;;;;;;;8.13;1.85;;;;;;;10.77;100.00;100194.84;1032653;28;21112;-47
2023/12/25 00:03:46;;;;;;;6.00;1.17;;;;;;;10.79;100.00;100197.28;1034969;28;20376;-48
2023/12/25 00:04:49;;;;;;;10.75;1.60;;;;;;;10.76;100.00;100198.56;1033991;28;20973;-56
2023/12/25 00:05:55;;;;;;;;;;;;;;;;;;;;;
2023/12/25 00:06:53;;;;;;;6.68;2.40;;;;;;;10.74;100.00;100205.16;1030586;28;20313;-47
2023/12/25 00:07:34;;;;;;;15.43;1.88;;;;;;;10.72;100.00;100196.59;1025321;28;20706;-57
2023/12/25 00:08:41;;;;;;;7.60;2.10;;;;;;;10.71;100.00;100209.09;1030756;28;20309;-50
2023/12/25 00:10:10;;;;;;;6.85;1.35;;;;;;;10.70;100.00;100218.13;1032091;28;20389;-55
2023/12/25 00:11:11;;;;;;;13.50;1.88;;;;;;;10.70;100.00;100202.16;1033440;28;20310;-50
2023/12/25 00:12:21;;;;;;;9.05;1.38;;;;;;;10.70;100.00;100210.13;1034019;28;20303;-50
2023/12/25 00:13:15;;;;;;;8.57;1.67;;;;;;;10.67;100.00;100199.94;1035041;28;20343;-57
2023/12/25 00:14:08;;;;;;;4.93;1.45;;;;;;;10.69;100.00;100205.84;1026655;28;20305;-48
2023/12/25 00:15:23;;;;;;;4.82;1.17;;;;;;;10.69;100.00;100203.19;1028468;28;21146;-53
2023/12/25 00:16:17;;;;;;;5.40;1.40;;;;;;;10.66;100.00;100202.81;1041921;28;20351;-47
2023/12/25 00:17:05;;;;;;;5.30;1.58;;;;;;;10.64;100.00;100195.06;1027283;28;20309;-57
2023/12/25 00:17:59;;;;;;;10.13;2.38;;;;;;;10.67;100.00;100199.13;1023645;29;21150;-56
2023/12/25 00:18:55;;;;;;;6.20;1.52;;;;;;;10.65;100.00;100199.34;1026335;28;20043;-54
2023/12/25 00:20:03;;;;;;;11.32;3.05;;;;;;;10.64;100.00;100200.38;1028693;28;20306;-48
2023/12/25 00:21:26;;;;;;;7.15;1.42;;;;;;;10.65;100.00;100194.03;1038735;28;20309;-57
2023/12/25 00:22:43;;;;;;;4.40;1.52;;;;;;;10.63;100.00;100188.13;1029876;28;20315;-48
2023/12/25 00:23:34;;;;;;;9.15;1.70;;;;;;;10.63;100.00;100193.44;1036352;28;20305;-57
2023/12/25 00:24:28;;;;;;;8.18;2.92;;;;;;;10.61;100.00;100200.06;1034151;28;20042;-48
2023/12/25 00:25:37;;;;;;;7.32;3.08;;;;;;;10.61;100.00;100216.84;1030214;28;20329;-57
2023/12/25 00:26:40;;;;;;;7.47;1.52;;;;;;;10.58;100.00;100217.31;1035296;28;20308;-57
2023/12/25 00:28:06;;;;;;;6.45;1.67;;;;;;;10.59;100.00;100229.56;1035282;28;20312;-54
2023/12/25 00:29:35;;;;;;;5.10;2.33;;;;;;;10.57;100.00;100226.34;1046220;28;20295;-51
2023/12/25 00:30:55;;;;;;;5.53;1.95;;;;;;;10.60;100.00;100233.84;1035709;28;20344;-57
2023/12/25 00:32:18;;;;;;;8.93;1.48;;;;;;;10.60;100.00;100220.53;1038363;28;20297;-57
2023/12/25 00:33:33;;;;;;;9.07;1.30;;;;;;;10.57;100.00;100220.19;1042471;28;20304;-54
2023/12/25 00:34:43;;;;;;;9.18;3.17;;;;;;;10.59;100.00;100207.47;1036268;28;20650;-54
2023/12/25 00:36:07;;;;;;;5.80;1.75;;;;;;;10.61;100.00;100216.03;1039413;28;20291;-54
2023/12/25 00:37:28;;;;;;;5.60;1.42;;;;;;;10.59;100.00;100216.25;1036726;28;20312;-47
2023/12/25 00:38:31;;;;;;;9.95;1.50;;;;;;;10.56;100.00;100208.75;1032405;28;21137;-57
2023/12/25 00:39:22;;;;;;;9.05;2.47;;;;;;;10.57;100.00;100221.00;1030560;28;20298;-47
2023/12/25 00:40:17;;;;;;;9.07;1.85;;;;;;;10.58;100.00;100216.50;1024713;28;20719;-57
2023/12/25 00:41:15;;;;;;;11.65;2.30;;;;;;;10.58;100.00;100214.63;1040072;28;20072;-57
2023/12/25 00:42:28;;;;;;;15.70;2.33;;;;;;;10.60;100.00;100203.75;1030807;28;20357;-57
2023/12/25 00:43:10;;;;;;;11.80;2.28;;;;;;;10.58;100.00;100222.63;1031400;28;20323;-48
2023/12/25 00:44:30;;;;;;;2.60;1.40;;;;;;;10.58;100.00;100211.97;1032097;28;20305;-56
2023/12/25 00:45:18;;;;;;;8.55;1.55;;;;;;;10.56;100.00;100195.41;1039217;28;20301;-47
2023/12/25 00:46:02;;;;;;;8.30;1.80;;;;;;;10.57;100.00;100202.38;1046141;28;20370;-57
2023/12/25 00:47:14;;;;;;;5.80;1.60;;;;;;;10.57;100.00;100207.69;1020234;28;20822;-56
2023/12/25 00:48:01;;;;;;;7.65;2.00;;;;;;;10.62;100.00;100218.47;1022396;28;20334;-48
2023/12/25 00:48:50;;;;;;;20.80;2.42;;;;;;;10.60;100.00;100215.22;1033585;28;20301;-56
2023/12/25 00:49:46;;;;;;;7.53;2.53;;;;;;;10.60;100.00;100219.72;1032322;28;20336;-49
2023/12/25 00:50:32;;;;;;;7.18;1.88;;;;;;;10.56;100.00;100213.25;1030904;28;20348;-56
2023/12/25 00:51:41;;;;;;;5.80;3.03;;;;;;;10.59;100.00;100224.25;1039729;28;21094;-56
2023/12/25 00:52:26;;;;;;;8.57;1.60;;;;;;;10.56;100.00;100219.38;1044222;28;20663;-48
2023/12/25 00:53:29;;;;;;;7.63;1.35;;;;;;;10.56;100.00;100229.22;1037561;28;20817;-47
2023/12/25 00:54:22;;;;;;;4.75;1.10;;;;;;;10.57;100.00;100233.50;1036392;28;20315;-47
2023/12/25 00:55:24;;;;;;;5.63;1.58;;;;;;;10.54;100.00;100232.13;1037697;28;20035;-56
2023/12/25 00:56:25;;;;;;;14.18;3.72;;;;;;;10.53;100.00;100236.63;1034940;28;20046;-47
2023/12/25 00:57:34;;;;;;;7.93;1.48;;;;;;;10.53;100.00;100219.84;1029347;28;20110;-48
2023/12/25 00:58:23;;;;;;;6.15;1.60;;;;;;;10.56;100.00;100218.56;1031704;28;20301;-47
2023/12/25 00:59:29;;;;;;;3.28;1.05;;;;;;;10.55;100.00;100217.78;1034561;28;20308;-57
2023/12/25 01:00:16;;;;;;;7.75;1.08;;;;;;;10.53;100.00;100219.84;1039223;28;20430;-48
2023/12/25 01:01:35;;;;;;;7.32;2.85;;;;;;;10.54;100.00;100226.78;1043665;28;20335;-47
2023/12/25 01:02:24;;;;;;;10.32;1.52;;;;;;;10.53;100.00;100230.50;1041214;28;20701;-50
2023/12/25 01:03:28;;;;;;;5.38;1.45;;;;;;;10.51;100.00;100232.59;1037689;28;20874;-47
2023/12/25 01:04:27;;;;;;;3.60;1.60;;;;;;;10.50;100.00;100231.78;1039649;28;20312;-47
2023/12/25 01:05:27;;;;;;;7.50;1.55;;;;;;;10.48;100.00;100241.03;1036864;28;20316;-48
2023/12/25 01:06:34;;;;;;;4.07;1.92;;;;;;;10.50;100.00;100238.97;1034505;28;20312;-47
2023/12/25 01:07:24;;;;;;;7.20;1.35;;;;;;;10.52;100.00;100248.34;1031690;28;20302;-57
2023/12/25 01:08:16;;;;;;;10.30;1.77;;;;;;;10.55;100.00;100230.28;1034214;28;20389;-56
2023/12/25 01:09:12;;;;;;;11.70;2.05;;;;;;;10.53;100.00;100243.81;1030725;28;20127;-47
2023/12/25 01:10:18;;;;;;;5.00;1.20;;;;;;;10.52;100.00;100237.69;1032956;28;20313;-48
2023/12/25 01:11:23;;;;;;;11.18;2.13;;;;;;;10.52;100.00;100239.53;1034958;28;20308;-47
2023/12/25 01:12:52;;;;;;;15.95;1.80;;;;;;;10.47;100.00;100242.88;1029350;28;20369;-47
2023/12/25 01:14:06;;;;;;;4.07;1.02;;;;;;;10.48;100.00;100247.19;1034512;28;20329;-55
2023/12/25 01:15:03;;;;;;;7.75;1.55;;;;;;;10.48;100.00;100254.34;1029187;28;20408;-46
2023/12/25 01:16:24;;;;;;;9.60;1.92;;;;;;;10.48;100.00;100243.69;1031634;28;20332;-47
2023/12/25 01:17:31;;;;;;;7.25;1.25;;;;;;;10.46;100.00;100248.44;1037981;28;20276;-56
2023/12/25 01:18:27;;;;;;;6.55;1.42;;;;;;;10.46;100.00;100235.13;1030836;28;20306;-55
2023/12/25 01:19:25;;;;;;;4.68;1.27;;;;;;;10.48;100.00;100222.41;1029171;28;20302;-54
2023/12/25 01:20:25;;;;;;;4.32;0.98;;;;;;;10.50;100.00;100226.47;1027680;28;20318;-57
2023/12/25 01:21:24;;;;;;;6.63;1.48;;;;;;;10.52;100.00;100231.53;1028363;28;20757;-57
2023/12/25 01:22:37;;;;;;;6.35;1.27;;;;;;;10.50;100.00;100226.47;1032681;28;20943;-47
2023/12/25 01:23:45;;;;;;;3.63;0.98;;;;;;;10.56;100.00;100230.03;1036686;28;20316;-48
2023/12/25 01:24:40;;;;;;;7.88;0.98;;;;;;;10.57;100.00;100231.66;1038604;28;20565;-52
2023/12/25 01:25:52;;;;;;;5.60;1.17;;;;;;;10.56;100.00;100219.38;1033151;28;20310;-56
2023/12/25 01:26:43;;;;;;;3.88;1.02;;;;;;;10.57;100.00;100217.53;1024294;28;20305;-57
2023/12/25 01:27:53;;;;;;;7.05;1.45;;;;;;;10.59;100.00;100223.44;1034205;28;20038;-52
2023/12/25 01:28:46;;;;;;;2.65;1.23;;;;;;;10.53;100.00;100223.31;1030566;28;20313;-56
2023/12/25 01:29:36;;;;;;;6.40;2.13;;;;;;;10.53;100.00;100230.50;1016511;29;20321;-48
2023/12/25 01:30:50;;;;;;;6.38;1.42;;;;;;;10.48;100.00;100223.22;1017548;29;20372;-48
2023/12/25 01:31:56;;;;;;;5.78;1.30;;;;;;;10.51;100.00;100229.94;1017134;29;20311;-47
2023/12/25 01:33:11;;;;;;;4.20;1.73;;;;;;;10.51;100.00;100237.91;1020036;28;20322;-48
2023/12/25 01:34:00;;;;;;;8.10;2.40;;;;;;;10.49;100.00;100246.13;1025014;29;20310;-49
2023/12/25 01:34:44;;;;;;;7.53;1.30;;;;;;;10.48;100.00;100241.84;1014697;29;20312;-57
2023/12/25 01:35:27;;;;;;;2.45;0.80;;;;;;;10.45;100.00;100249.50;1020877;28;20713;-57
2023/12/25 01:36:26;;;;;;;11.00;2.30;;;;;;;10.46;100.00;100240.47;1027230;28;20342;-47
2023/12/25 01:37:25;;;;;;;6.22;1.33;;;;;;;10.46;100.00;100245.78;1022528;29;20337;-48
2023/12/25 01:41:28;;;;;;;6.68;1.25;;;;;;;10.44;100.00;100245.22;1019693;29;20051;-53
2023/12/25 01:42:17;;;;;;;12.00;1.85;;;;;;;10.45;100.00;100228.19;1019752;29;20400;-57
2023/12/25 01:43:19;;;;;;;5.18;1.25;;;;;;;10.48;100.00;100235.72;1025865;28;20317;-48
2023/12/25 01:44:16;;;;;;;2.38;0.95;;;;;;;10.46;100.00;100235.13;1024062;29;20048;-57
2023/12/25 01:45:37;;;;;;;2.90;1.55;;;;;;;10.46;100.00;100245.78;1025593;28;20852;-49
2023/12/25 01:46:41;;;;;;;6.68;1.00;;;;;;;10.46;100.00;100240.47;1020358;29;20368;-54
2023/12/25 01:47:53;;;;;;;3.00;0.85;;;;;;;10.51;100.00;100245.91;1014505;29;20329;-56
2023/12/25 01:48:42;;;;;;;5.03;1.02;;;;;;;10.50;100.00;100252.28;1017190;29;20308;-56
2023/12/25 01:50:06;;;;;;;;;;;;;;;;;;;;;
2023/12/25 01:51:00;;;;;;;3.22;0.98;;;;;;;10.50;100.00;100260.25;1018235;29;20379;-54
2023/12/25 01:51:40;;;;;;;7.05;1.00;;;;;;;10.48;100.00;100259.69;1017969;29;20315;-57
2023/12/25 01:52:50;;;;;;;8.05;1.65;;;;;;;10.46;100.00;100261.75;1026312;28;20299;-57
2023/12/25 01:53:41;;;;;;;;;;;;;;;10.47;100.00;100258.06;1029471;28;20317;-57
2023/12/25 01:56:24;;;;;;;11.02;2.78;;;;;;;10.46;100.00;100251.91;1017078;29;20683;-57
2023/12/25 01:57:11;;;;;;;9.95;1.80;;;;;;;10.45;100.00;100257.47;1018841;29;20315;-47
2023/12/25 01:58:03;;;;;;;10.25;1.17;;;;;;;10.49;100.00;100266.63;1019649;29;20319;-57
2023/12/25 01:59:30;;;;;;;2.38;1.00;;;;;;;10.45;100.00;100254.81;1022432;29;20288;-57
2023/12/25 02:01:06;;;;;;;7.22;1.80;;;;;;;10.44;100.00;100279.81;1043485;28;21303;-51
2023/12/25 02:02:18;;;;;;;2.20;1.08;;;;;;;10.50;100.00;100277.03;1041492;28;21402;-57
2023/12/25 02:03:11;;;;;;;7.22;1.75;;;;;;;10.47;100.00;100274.03;1031591;28;20301;-47
2023/12/25 02:04:17;;;;;;;8.38;1.25;;;;;;;10.50;100.00;100284.22;1027346;28;20313;-48
2023/12/25 02:05:04;;;;;;;4.90;1.52;;;;;;;10.46;100.00;100264.44;1036276;28;20312;-45
2023/12/25 02:06:01;;;;;;;8.88;1.13;;;;;;;10.44;100.00;100259.34;1035966;28;20324;-57
2023/12/25 02:06:52;;;;;;;1.38;0.70;;;;;;;10.50;100.00;100257.59;1033707;28;20309;-56
2023/12/25 02:07:34;;;;;;;5.85;1.00;;;;;;;10.49;100.00;100258.63;1035726;28;20370;-57
2023/12/25 02:08:26;;;;;;;5.65;1.13;;;;;;;10.51;100.00;100257.38;1035875;28;20340;-56
2023/12/25 02:09:30;;;;;;;5.20;1.23;;;;;;;10.53;100.00;100259.78;1043227;28;20328;-50
2023/12/25 02:10:39;;;;;;;4.82;1.60;;;;;;;10.53;100.00;100265.94;1034805;28;20340;-57
2023/12/25 02:11:53;;;;;;;5.03;1.23;;;;;;;10.51;100.00;100260.03;1039772;28;20304;-57
2023/12/25 02:13:02;;;;;;;3.78;1.40;;;;;;;10.47;100.00;100258.06;1023016;28;20820;-50
2023/12/25 02:14:12;;;;;;;6.15;1.17;;;;;;;10.50;100.00;100249.59;1036550;28;20909;-48
2023/12/25 02:15:09;;;;;;;4.30;1.50;;;;;;;10.47;100.00;100252.72;1043262;28;20061;-57
2023/12/25 02:16:23;;;;;;;2.30;0.95;;;;;;;10.46;100.00;100257.25;1039902;28;20300;-47
2023/12/25 02:18:49;;;;;;;6.53;1.63;;;;;;;10.44;100.00;100258.53;1032002;28;20522;-46
2023/12/25 02:19:49;;;;;;;11.52;2.05;;;;;;;10.45;100.00;100260.16;1030469;28;20080;-47
2023/12/25 02:21:05;;;;;;;;;;;;;;;;;;;;;
2023/12/25 02:22:06;;;;;;;6.38;1.25;;;;;;;10.48;100.00;100254.34;1042607;28;20296;-48
2023/12/25 02:23:05;;;;;;;5.30;1.55;;;;;;;10.56;100.00;100256.66;1038096;28;20560;-47
2023/12/25 02:24:12;;;;;;;6.20;2.22;;;;;;;10.55;100.00;100249.72;1029714;28;20337;-46
2023/12/25 02:25:40;;;;;;;9.60;1.92;;;;;;;10.56;100.00;100256.66;1028360;28;20899;-53
2023/12/25 02:26:39;;;;;;;11.77;4.25;;;;;;;10.53;100.00;100257.13;1022061;29;20303;-50
2023/12/25 02:27:29;;;;;;;17.00;2.53;;;;;;;10.58;100.00;100259.91;1035173;28;20305;-48
2023/12/25 02:28:16;;;;;;;4.50;1.00;;;;;;;10.53;100.00;100252.63;1033823;28;20043;-57
2023/12/25 02:29:05;;;;;;;6.07;1.48;;;;;;;10.50;100.00;100252.28;1038494;28;20302;-47
2023/12/25 02:30:11;;;;;;;11.25;1.77;;;;;;;10.51;100.00;100267.22;1033731;28;20306;-47
2023/12/25 02:31:35;;;;;;;7.03;1.60;;;;;;;10.50;100.00;100262.91;1025312;28;20830;-57
2023/12/25 02:32:43;;;;;;;8.77;2.00;;;;;;;10.50;100.00;100260.25;1040964;28;20341;-47
2023/12/25 02:34:00;;;;;;;10.73;2.78;;;;;;;10.46;100.00;100261.75;1033352;28;20534;-57
2023/12/25 02:34:57;;;;;;;5.88;1.67;;;;;;;10.48;100.00;100251.69;1035354;28;20329;-46
2023/12/25 02:35:44;;;;;;;9.02;1.95;;;;;;;10.52;100.00;100260.84;1033001;28;20319;-57
2023/12/25 02:36:32;;;;;;;9.00;2.08;;;;;;;10.50;100.00;100249.59;1028316;28;20046;-49
2023/12/25 02:37:21;;;;;;;10.15;1.95;;;;;;;10.50;100.00;100253.09;1032521;28;20722;-46
2023/12/25 02:38:11;;;;;;;13.93;5.28;;;;;;;10.50;100.00;100252.28;1036483;28;20301;-47
2023/12/25 02:39:00;;;;;;;8.98;1.30;;;;;;;10.50;100.00;100254.94;1037321;28;20312;-48
2023/12/25 02:39:54;;;;;;;9.85;1.75;;;;;;;10.53;100.00;100251.81;1039242;28;21284;-48
2023/12/25 02:40:47;;;;;;;8.35;1.40;;;;;;;10.52;100.00;100250.19;1037743;28;20297;-56
2023/12/25 02:41:36;;;;;;;5.93;1.48;;;;;;;10.52;100.00;100261.66;1030361;28;20309;-47
2023/12/25 02:42:14;;;;;;;3.13;1.13;;;;;;;10.52;100.00;100260.84;1033745;28;20114;-55
2023/12/25 02:42:55;;;;;;;6.75;2.38;;;;;;;10.52;100.00;100266.16;1030268;28;20337;-57
2023/12/25 02:43:44;;;;;;;9.93;1.80;;;;;;;10.51;100.00;100269.88;1033551;28;20348;-46
2023/12/25 02:44:35;;;;;;;7.88;1.58;;;;;;;10.53;100.00;100257.13;1036392;28;20309;-57
2023/12/25 02:45:26;;;;;;;8.43;1.95;;;;;;;10.52;100.00;100253.66;1035315;28;20320;-57
2023/12/25 02:46:08;;;;;;;5.57;1.50;;;;;;;10.51;100.00;100264.53;1037338;28;20376;-47
2023/12/25 02:47:12;;;;;;;8.65;1.88;;;;;;;10.51;100.00;100269.88;1031408;28;20714;-55
2023/12/25 02:48:08;;;;;;;7.47;1.40;;;;;;;10.53;100.00;100262.47;1032049;28;20309;-57
2023/12/25 02:49:02;;;;;;;12.30;2.78;;;;;;;10.52;100.00;100256.31;1036517;28;20302;-56
2023/12/25 02:49:57;;;;;;;5.85;1.10;;;;;;;10.49;100.00;100250.66;1042378;28;20328;-57
2023/12/25 02:51:03;;;;;;;5.38;1.63;;;;;;;10.48;100.00;100249.84;1037678;28;20307;-49
2023/12/25 02:52:19;;;;;;;4.10;1.30;;;;;;;10.44;100.00;100259.34;1031844;28;20327;-49
2023/12/25 02:54:00;;;;;;;8.50;1.10;;;;;;;10.40;100.00;100246.69;1033951;28;20404;-57
2023/12/25 02:54:40;;;;;;;10.98;2.10;;;;;;;10.41;100.00;100246.47;1038226;28;20367;-50
2023/12/25 02:55:28;;;;;;;9.05;3.40;;;;;;;10.40;100.00;100249.34;1034014;28;20835;-47
2023/12/25 02:56:19;;;;;;;4.97;2.13;;;;;;;10.43;100.00;100246.25;1035376;28;20312;-56
2023/12/25 02:57:25;;;;;;;4.10;1.02;;;;;;;10.56;100.00;100224.72;1036989;28;20315;-47
2023/12/25 02:58:36;;;;;;;11.93;3.00;;;;;;;10.49;100.00;100255.97;1039806;28;20308;-57
2023/12/25 02:59:36;;;;;;;6.13;2.03;;;;;;;10.42;100.00;100249.97;1037604;28;20304;-48
2023/12/25 03:00:31;;;;;;;3.08;0.80;;;;;;;10.39;100.00;100240.53;1045311;28;20402;-56
2023/12/25 03:01:16;;;;;;;3.33;0.88;;;;;;;10.39;100.00;100255.72;1038481;28;20657;-53
2023/12/25 03:02:17;;;;;;;8.88;1.98;;;;;;;10.46;100.00;100251.13;1039809;28;20819;-57
2023/12/25 03:03:30;;;;;;;7.32;2.20;;;;;;;10.38;100.00;100262.06;1037814;28;20334;-57
2023/12/25 03:04:28;;;;;;;4.30;1.25;;;;;;;10.34;100.00;100260.91;1036914;28;20731;-55
2023/12/25 03:05:43;;;;;;;4.68;1.88;;;;;;;10.31;100.00;100245.41;1031544;28;20061;-55
2023/12/25 03:06:37;;;;;;;10.80;1.63;;;;;;;10.26;100.00;100255.94;1038729;28;20308;-49
2023/12/25 03:07:45;;;;;;;5.97;1.00;;;;;;;10.17;100.00;100253.56;1039458;28;20300;-50
2023/12/25 03:08:54;;;;;;;3.42;1.00;;;;;;;10.12;100.00;100260.59;1045398;28;20303;-57
2023/12/25 03:10:02;;;;;;;2.20;1.05;;;;;;;10.08;100.00;100260.25;1037816;28;20347;-52
2023/12/25 03:11:10;;;;;;;5.50;0.90;;;;;;;10.04;100.00;100275.03;1034237;28;20317;-57
2023/12/25 03:12:09;;;;;;;2.70;1.00;;;;;;;9.98;100.00;100273.28;1041346;28;20306;-48
2023/12/25 03:13:02;;;;;;;5.97;1.08;;;;;;;9.98;100.00;100275.94;1037402;28;20664;-46
2023/12/25 03:13:58;;;;;;;5.35;1.60;;;;;;;9.96;100.00;100278.03;1038495;28;20414;-57
2023/12/25 03:14:56;;;;;;;4.68;0.82;;;;;;;10.03;100.00;100284.06;1033351;28;20306;-49
2023/12/25 03:15:44;;;;;;;6.63;1.40;;;;;;;9.93;100.00;100277.66;1032815;28;20066;-47
2023/12/25 03:16:29;;;;;;;4.25;1.05;;;;;;;9.92;100.00;100284.84;1029949;28;20415;-57
2023/12/25 03:17:31;;;;;;;5.70;1.88;;;;;;;9.89;100.00;100285.28;1037432;28;20284;-47
2023/12/25 03:18:23;;;;;;;5.97;1.50;;;;;;;9.84;100.00;100282.47;1034530;28;20312;-48
2023/12/25 03:19:17;;;;;;;7.13;0.85;;;;;;;9.86;100.00;100293.69;1020052;28;20965;-57
2023/12/25 03:22:00;;;;;;;2.85;1.25;;;;;;;9.73;100.00;100285.91;1037928;28;20308;-57
2023/12/25 03:23:05;;;;;;;6.07;1.10;;;;;;;9.67;100.00;100294.78;1040821;28;20300;-57
2023/12/25 03:24:20;;;;;;;8.60;1.58;;;;;;;9.68;100.00;100301.72;1040382;28;20379;-57
2023/12/25 03:25:10;;;;;;;4.07;1.20;;;;;;;9.67;100.00;100294.78;1038244;28;20956;-56
2023/12/25 03:26:17;;;;;;;9.40;0.95;;;;;;;9.67;100.00;100295.59;1038219;28;20898;-57
2023/12/25 03:27:06;;;;;;;5.15;0.73;;;;;;;9.73;100.00;100315.16;1038005;28;20301;-47
2023/12/25 03:30:53;;;;;;;4.75;1.00;;;;;;;9.66;100.00;100309.13;1035064;28;20301;-57
2023/12/25 03:31:37;;;;;;;3.88;0.75;;;;;;;9.67;100.00;100316.06;1032520;28;20306;-47
2023/12/25 03:33:18;;;;;;;3.95;0.70;;;;;;;9.66;100.00;100311.78;1033031;28;20309;-57
2023/12/25 03:34:18;;;;;;;5.05;0.77;;;;;;;9.67;100.00;100321.38;1044189;28;20326;-48
2023/12/25 03:35:15;;;;;;;1.88;1.05;;;;;;;9.74;100.00;100322.09;1038474;28;20045;-56
2023/12/25 03:36:07;;;;;;;5.65;0.80;;;;;;;9.71;100.00;100323.34;1034488;28;20339;-56
2023/12/25 03:37:08;;;;;;;8.52;0.90;;;;;;;9.68;100.00;100328.31;1030076;28;20480;-51
2023/12/25 03:38:01;;;;;;;4.15;0.50;;;;;;;9.66;100.00;100311.78;1031973;28;20298;-51
2023/12/25 03:38:55;;;;;;;1.60;0.68;;;;;;;9.72;100.00;100316.19;1035333;28;20811;-48
2023/12/25 03:39:58;;;;;;;2.33;1.10;;;;;;;9.69;100.00;100309.47;1035074;28;20304;-47
2023/12/25 03:40:42;;;;;;;10.13;1.15;;;;;;;9.70;100.00;100326.25;1037995;28;20567;-48
2023/12/25 03:41:41;;;;;;;2.10;0.60;;;;;;;9.66;100.00;100314.44;1031479;28;20630;-52
2023/12/25 03:42:46;;;;;;;7.90;0.65;;;;;;;9.66;100.00;100322.41;1042446;28;20300;-56
2023/12/25 03:43:40;;;;;;;3.90;0.77;;;;;;;9.68;100.00;100312.34;1035858;28;20308;-57
2023/12/25 03:46:24;;;;;;;2.17;0.93;;;;;;;9.66;100.00;100315.25;1045076;28;20375;-57
2023/12/25 03:47:22;;;;;;;2.17;0.47;;;;;;;9.68;100.00;100315.03;1035098;28;20312;-49
2023/12/25 03:48:23;;;;;;;1.63;0.30;;;;;;;9.64;100.00;100311.19;1044968;28;20975;-57
2023/12/25 03:49:43;;;;;;;3.75;0.60;;;;;;;9.61;100.00;100320.41;1045374;28;20311;-57
2023/12/25 03:50:42;;;;;;;2.90;0.70;;;;;;;9.63;100.00;100323.66;1042744;28;20442;-57
2023/12/25 03:51:55;;;;;;;4.13;0.55;;;;;;;9.65;100.00;100340.22;1048460;28;20302;-57
2023/12/25 03:52:58;;;;;;;1.38;0.50;;;;;;;9.65;100.00;100348.19;1043080;28;20319;-57
2023/12/25 03:55:29;;;;;;;2.25;0.40;;;;;;;9.66;100.00;100335.72;1035793;28;20814;-48
2023/12/25 03:56:35;;;;;;;1.77;1.00;;;;;;;9.66;100.00;100346.34;1036897;28;20340;-49
2023/12/25 03:57:31;;;;;;;2.20;0.32;;;;;;;9.67;100.00;100334.66;1038728;28;20309;-57
2023/12/25 03:58:47;;;;;;;2.92;0.68;;;;;;;9.66;100.00;100333.84;1039734;28;20395;-49
2023/12/25 03:59:24;;;;;;;8.90;1.25;;;;;;;9.69;100.00;100320.13;1033633;28;20289;-48
2023/12/25 04:00:31;;;;;;;5.20;0.75;;;;;;;9.76;100.00;100320.84;1036286;28;20320;-52
2023/12/25 04:01:19;;;;;;;2.15;1.00;;;;;;;9.83;100.00;100328.72;1033943;28;20497;-46
2023/12/25 04:02:24;;;;;;;5.60;1.25;;;;;;;9.83;100.00;100321.56;1033725;28;20345;-46
2023/12/25 04:03:01;;;;;;;2.25;0.70;;;;;;;9.82;100.00;100319.13;1041633;28;20928;-57
2023/12/25 04:03:33;;;;;;;6.10;0.80;;;;;;;9.77;100.00;100308.34;1040212;28;20350;-58
2023/12/25 04:04:05;;;;;;;5.28;1.80;;;;;;;9.83;100.00;100318.09;1038955;28;20428;-58
2023/12/25 04:04:40;;;;;;;10.13;1.38;;;;;;;9.88;100.00;100323.56;1035430;28;20300;-57
2023/12/25 04:05:12;;;;;;;3.70;1.00;;;;;;;9.89;100.00;100314.56;1035652;28;20648;-57
2023/12/25 04:05:45;;;;;;;4.78;1.52;;;;;;;9.93;100.00;100314.91;1039152;28;20406;-47
2023/12/25 04:06:24;;;;;;;5.18;1.15;;;;;;;9.95;100.00;100305.66;1043470;28;20779;-46
2023/12/25 04:06:55;;;;;;;5.28;1.48;;;;;;;9.93;100.00;100310.41;1040160;28;20292;-49
2023/12/25 04:07:28;;;;;;;6.80;1.63;;;;;;;9.93;100.00;100310.41;1038476;28;20300;-47
2023/12/25 04:07:59;;;;;;;8.07;1.17;;;;;;;9.93;100.00;100315.72;1038257;28;20304;-46
2023/12/25 04:08:31;;;;;;;6.25;1.50;;;;;;;9.92;100.00;100316.75;1034655;28;20304;-57
2023/12/25 04:09:04;;;;;;;6.78;1.25;;;;;;;9.92;100.00;100324.75;1035148;28;20990;-57
2023/12/25 04:09:36;;;;;;;7.47;2.03;;;;;;;9.90;100.00;100321.50;1035450;28;20818;-57
2023/12/25 04:10:08;;;;;;;4.38;1.40;;;;;;;9.95;100.00;100323.47;1035073;28;20442;-57
2023/12/25 04:10:39;;;;;;;14.27;2.35;;;;;;;9.92;100.00;100319.41;1041824;28;20650;-57
2023/12/25 04:11:18;;;;;;;4.00;1.50;;;;;;;9.93;100.00;100323.72;1039585;28;20401;-57
2023/12/25 04:11:50;;;;;;;4.50;1.38;;;;;;;9.86;100.00;100325.63;1043127;28;20295;-57
2023/12/25 04:12:21;;;;;;;5.55;1.35;;;;;;;9.97;100.00;100322.22;1043285;28;20386;-57
2023/12/25 04:12:53;;;;;;;6.05;2.35;;;;;;;9.97;100.00;100332.84;1042668;28;20337;-57
2023/12/25 04:13:25;;;;;;;10.93;1.80;;;;;;;9.99;100.00;100325.47;1041352;28;20303;-47
2023/12/25 04:13:56;;;;;;;10.30;1.90;;;;;;;9.96;100.00;100325.09;1038643;28;20390;-49
2023/12/25 04:14:28;;;;;;;7.47;3.30;;;;;;;9.93;100.00;100326.38;1038937;28;20292;-47
2023/12/25 04:15:00;;;;;;;4.60;1.50;;;;;;;10.03;100.00;100323.16;1036277;28;20309;-47
2023/12/25 04:15:31;;;;;;;15.20;2.38;;;;;;;10.01;100.00;100330.56;1042860;28;20835;-46
2023/12/25 04:16:03;;;;;;;6.45;2.33;;;;;;;9.97;100.00;100316.91;1043383;28;20385;-56
2023/12/25 04:16:35;;;;;;;7.05;2.08;;;;;;;10.11;100.00;100328.16;1041312;28;20283;-57
2023/12/25 04:17:06;;;;;;;6.97;3.15;;;;;;;10.04;100.00;100312.28;1042952;28;20303;-57
2023/12/25 04:17:38;;;;;;;6.20;2.30;;;;;;;9.98;100.00;100307.88;1046770;28;20295;-57
2023/12/25 04:18:10;;;;;;;8.80;2.00;;;;;;;9.98;100.00;100313.19;1038598;28;20395;-57
2023/12/25 04:18:42;;;;;;;7.57;2.45;;;;;;;9.97;100.00;100308.09;1035178;28;20339;-56
2023/12/25 04:19:14;;;;;;;11.60;2.05;;;;;;;9.99;100.00;100304.19;1038817;28;20965;-57
2023/12/25 04:19:46;;;;;;;10.38;2.08;;;;;;;10.06;100.00;100310.22;1031604;28;20308;-57
2023/12/25 04:20:18;;;;;;;15.38;3.58;;;;;;;10.13;100.00;100310.13;1038863;28;20371;-57
2023/12/25 04:20:49;;;;;;;10.05;2.35;;;;;;;10.14;100.00;100306.44;1035252;28;20301;-57
2023/12/25 04:21:22;;;;;;;10.13;3.25;;;;;;;10.10;100.00;100306.06;1034211;28;20328;-56
2023/12/25 04:21:53;;;;;;;9.95;2.65;;;;;;;10.08;100.00;100310.81;1039306;28;20311;-56
2023/12/25 04:22:25;;;;;;;7.45;2.58;;;;;;;10.09;100.00;100307.09;1045941;28;20294;-56
2023/12/25 04:22:57;;;;;;;10.13;3.40;;;;;;;10.09;100.00;100323.06;1043007;28;20307;-57
2023/12/25 04:23:29;;;;;;;13.75;2.70;;;;;;;10.08;100.00;100308.13;1042835;28;20299;-56
2023/12/25 04:24:02;;;;;;;13.95;3.35;;;;;;;10.19;100.00;100320.69;1041409;28;20315;-57
2023/12/25 04:24:33;;;;;;;9.98;2.55;;;;;;;10.06;100.00;100320.84;1038962;28;20389;-56
2023/12/25 04:25:05;;;;;;;15.00;3.25;;;;;;;10.16;100.00;100315.81;1042945;28;20376;-57
2023/12/25 04:25:37;;;;;;;8.70;2.85;;;;;;;10.12;100.00;100306.66;1038936;28;20478;-56
2023/12/25 04:26:09;;;;;;;18.05;2.65;;;;;;;10.08;100.00;100313.47;1039239;28;20304;-57
2023/12/25 04:26:40;;;;;;;10.90;3.42;;;;;;;10.09;100.00;100314.28;1042370;28;20295;-57
2023/12/25 04:27:12;;;;;;;9.30;3.92;;;;;;;10.12;100.00;100325.28;1042601;28;20299;-56
2023/12/25 04:27:44;;;;;;;9.77;2.20;;;;;;;10.14;100.00;100330.41;1043902;28;20337;-56
2023/12/25 04:28:15;;;;;;;10.75;2.35;;;;;;;10.05;100.00;100319.22;1043303;28;20305;-57
2023/12/25 04:28:48;;;;;;;11.05;2.50;;;;;;;10.02;100.00;100314.38;1046268;28;20302;-57
2023/12/25 04:29:20;;;;;;;11.23;2.83;;;;;;;10.00;100.00;100326.28;1046363;28;20681;-57
2023/12/25 04:29:52;;;;;;;10.65;2.42;;;;;;;10.08;100.00;100337.41;1047405;28;20302;-57
2023/12/25 04:30:24;;;;;;;13.25;3.13;;;;;;;10.08;100.00;100318.78;1041263;28;20307;-57
2023/12/25 04:30:56;;;;;;;7.78;3.30;;;;;;;10.11;100.00;100334.28;1037589;28;20358;-56
2023/12/25 04:31:27;;;;;;;14.45;4.20;;;;;;;10.10;100.00;100330.00;1038264;28;20303;-56